Portada
METAR-TAF:

METAR-TAF

Aeroports :

Dammam, Aràbia Saudita

latitud: 26-28N, longitud: 049-47E, altitud: 22 m

Observació

L'informe es va fer fa 30 minuts, a les 16:00 UTC
Vent 7 kt del Nord
Temperatura 36°C
Humitat 24%
Pressió 1006 hPa
Visibilitat 10 km o més
sense núvols per sota de 1500 mi sense presència de cumulonimbus.

METAR: OEDF 271600Z 35007KT CAVOK 36/12 Q1006 NOSIG

Hora: 19:30 (16:30 UTC)

Pronòstic

L'informe es va fer fa 8 hores i 8 minuts, a les 08:22 UTC
Pronòstic vàlid del 27 a les 12 UTC al 28 a les 18 UTC
Vent 12 kt del Nord amb ràfegues de 22 kt
Visibilitat: 8000 m
Probabilitat 30% :
Temporalment
l' 27 a les 12 UTC al 27 a les 15 UTC
Visibilitat: 6000 m
Evolucionant progressivament
l' 27 a les 17 UTC al 27 a les 19 UTC
Vent 9 kt del Nord-Oest

TAF: OEDF 270822Z 2712/2818 36012G22KT 8000 NSC PROB30 TEMPO 2712/2715 6000 BECMG 2717/2719 32009KT

Observacions i pronòstics meteorològics de més de 4000 aeroports (METAR i TAF).

Les estacions disponibles són els punts grocs i vermells al mapa.

Posi el ratolí al punt desitjat per veure el nom de l'estació.

Feu clic per veure les observacions i els pronòstics meteorològics.

Per canviar el mapa: feu clic els botons verds amb una creu de color negre per apropar; al botó verd amb un guió per allunyar la imatge; o en les fletxes verdes per a mapes adjacents.


METAR-TAF: